DW8453 Weather Reports


Display with metric or nautical units.
time (UTC)temp
F
wind
direction
speed
MPH
gust
MPH
rain 1hr
in
rain 24hr
in
rain mn
in
humidity
%
barometer
mb
20180926090136 53 325 15.0 17.0 0.00 1.66 0.00 86 1007.4
20180926085636 53 342 20.0 21.0 0.00 1.66 0.00 87 1007.3
20180926085135 53 321 14.0 18.0 0.00 1.66 0.00 87 1007.3
20180926084636 52 338 14.0 18.0 0.00 1.66 0.00 87 1007.0
20180926084135 53 332 21.0 18.0 0.00 1.66 0.00 87 1007.1
20180926083636 53 311 21.0 18.0 0.00 1.66 0.00 88 1006.7
20180926083149 53 315 16.0 18.0 0.00 1.66 0.00 87 1006.5
20180926082636 53 313 20.0 21.0 0.00 1.66 0.00 87 1006.4
20180926082136 53 315 21.0 21.0 0.00 1.66 0.00 88 1006.5
20180926081635 53 302 20.0 20.0 0.00 1.66 0.00 88 1006.4
20180926081135 53 292 20.0 17.0 0.00 1.66 0.00 88 1006.3
20180926080635 53 326 20.0 18.0 0.00 1.66 0.00 88 1006.0
20180926080135 53 315 22.0 20.0 0.00 1.66 0.00 88 1005.7
20180926075635 53 300 17.0 18.0 0.00 1.66 0.00 88 1005.6
20180926075135 54 301 18.0 20.0 0.00 1.66 0.00 88 1005.4
20180926074635 54 315 24.0 21.0 0.00 1.66 0.00 88 1005.3
20180926073635 54 273 22.0 21.0 0.00 1.66 0.00 88 1005.1
20180926073153 54 294 21.0 18.0 0.00 1.66 0.00 88 1005.0
20180926072635 54 308 21.0 18.0 0.00 1.66 0.00 88 1004.8
20180926072136 54 315 25.0 22.0 0.00 1.66 1.66 88 1004.7
20180926071636 54 282 25.0 20.0 0.00 1.66 1.66 88 1004.5
20180926071136 55 303 29.0 26.0 0.00 1.66 1.66 88 1004.5
20180926070636 55 292 33.0 29.0 0.00 1.66 1.66 88 1004.4
20180926070140 55 260 28.0 24.0 0.00 1.66 1.66 88 1004.4
20180926065635 55 302 28.0 24.0 0.00 1.66 1.66 88 1004.3
20180926065135 55 279 23.0 21.0 0.00 1.66 1.66 88 1004.1
20180926064636 55 279 26.0 25.0 0.00 1.66 1.66 88 1004.0
20180926064136 55 260 32.0 30.0 0.00 1.66 1.66 88 1004.1
20180926063636 55 294 24.0 24.0 0.00 1.66 1.66 88 1003.9
20180926063135 55 329 33.0 28.0 0.00 1.66 1.66 88 1004.0
20180926062650 55 248 26.0 29.0 0.00 1.66 1.66 89 1003.8
20180926062136 55 283 32.0 35.0 0.00 1.66 1.66 89 1003.8
20180926061635 55 270 29.0 29.0 0.00 1.66 1.66 89 1003.6
20180926061135 55 270 30.0 28.0 0.00 1.66 1.66 89 1003.5
20180926060635 55 270 38.0 32.0 0.00 1.66 1.66 89 1003.5
20180926060136 55 270 34.0 28.0 0.00 1.66 1.66 89 1003.6
20180926055635 55 270 33.0 29.0 0.00 1.66 1.66 89 1003.5
20180926055135 54 285 37.0 33.0 0.00 1.66 1.66 89 1003.6
20180926054635 54 278 49.0 46.0 0.00 1.66 1.66 89 1003.5
20180926054135 54 305 32.0 33.0 0.01 1.66 1.66 89 1003.6
20180926053635 54 310 41.0 36.0 0.01 1.68 1.66 89 1003.8
20180926053136 54 268 40.0 38.0 0.01 1.69 1.66 89 1003.6
20180926052635 54 248 36.0 37.0 0.01 1.69 1.66 89 1003.4
20180926052135 54 258 36.0 37.0 0.02 1.71 1.66 89 1003.5
20180926051636 54 268 32.0 32.0 0.02 1.73 1.66 89 1003.3
20180926051136 54 270 37.0 29.0 0.02 1.73 1.66 89 1003.4
20180926050636 54 258 48.0 41.0 0.02 1.74 1.66 89 1003.3
20180926050135 54 260 35.0 31.0 0.02 1.75 1.66 89 1003.2
20180926045636 54 256 48.0 37.0 0.03 1.75 1.66 89 1003.5
20180926045136 54 248 44.0 36.0 0.03 1.75 1.66 89 1003.4
20180926044638 54 248 42.0 33.0 0.03 1.75 1.66 89 1003.6
20180926044136 54 245 31.0 37.0 0.03 1.74 1.65 89 1003.5
20180926043636 54 270 38.0 31.0 0.03 1.77 1.65 89 1003.6
20180926043136 54 248 39.0 33.0 0.04 1.82 1.65 89 1003.5
20180926042636 54 268 41.0 35.0 0.04 1.82 1.65 89 1003.8
20180926042150 54 254 37.0 29.0 0.03 1.81 1.63 89 1003.8
20180926041636 54 239 37.0 38.0 0.04 1.81 1.63 89 1003.9
20180926041136 54 262 31.0 38.0 0.05 1.81 1.63 89 1004.0
20180926040636 54 237 43.0 37.0 0.05 1.81 1.63 89 1003.9
20180926040135 54 281 35.0 28.0 0.06 1.81 1.63 89 1003.9
20180926035636 54 256 27.0 28.0 0.07 1.81 1.63 89 1004.1
20180926035136 54 262 38.0 30.0 0.10 1.81 1.63 89 1004.1
20180926034636 54 255 38.0 30.0 0.12 1.81 1.63 89 1004.1
20180926034135 53 215 30.0 25.0 0.12 1.81 1.61 89 1004.2
20180926033635 53 252 44.0 33.0 0.14 1.82 1.61 89 1004.3
20180926033136 53 251 52.0 47.0 0.14 1.81 1.61 89 1004.4
20180926032636 53 227 29.0 35.0 0.17 1.81 1.61 89 1004.3
20180926032136 53 262 23.0 24.0 0.19 1.82 1.61 89 1004.4
20180926031635 53 248 33.0 33.0 0.19 1.81 1.59 89 1004.5
20180926031135 53 260 36.0 30.0 0.22 1.80 1.59 89 1004.6
20180926030636 53 260 28.0 32.0 0.24 1.80 1.59 89 1004.5
20180926030136 53 235 43.0 32.0 0.23 1.79 1.57 89 1004.5
20180926025635 53 252 32.0 33.0 0.24 1.77 1.56 89 1004.6
20180926025136 53 257 35.0 28.0 0.22 1.74 1.52 89 1004.6
20180926024636 53 248 37.0 30.0 0.24 1.73 1.50 89 1004.7
20180926024135 53 252 32.0 30.0 0.25 1.72 1.49 89 1004.8
20180926023636 53 262 29.0 32.0 0.25 1.71 1.47 89 1005.0
20180926023136 53 288 24.0 24.0 0.27 1.70 1.46 89 1005.2
20180926022635 53 248 29.0 28.0 0.26 1.69 1.44 89 1005.4
20180926022135 53 248 28.0 29.0 0.26 1.67 1.42 89 1005.6
20180926021653 53 234 34.0 35.0 0.26 1.66 1.40 89 1005.8
20180926021135 53 259 33.0 35.0 0.25 1.63 1.37 89 1006.1
20180926020635 53 225 28.0 30.0 0.26 1.63 1.35 89 1006.2
20180926020136 53 225 19.0 25.0 0.26 1.64 1.34 89 1006.1
20180926015635 53 252 31.0 26.0 0.26 1.63 1.32 89 1006.1
20180926015135 53 217 33.0 29.0 0.26 1.66 1.30 89 1006.3
20180926014635 52 231 33.0 28.0 0.24 1.64 1.26 89 1006.3
20180926014135 52 244 25.0 25.0 0.24 1.64 1.24 89 1006.5
20180926013636 52 243 29.0 36.0 0.24 1.63 1.22 89 1006.6
20180926013136 52 242 30.0 26.0 0.24 1.60 1.20 89 1006.8
20180926012657 52 245 26.0 36.0 0.25 1.59 1.18 89 1006.6
20180926012136 52 218 24.0 22.0 0.26 1.59 1.16 89 1006.8
20180926011635 52 225 26.0 24.0 0.28 1.59 1.14 89 1006.9
20180926011136 52 215 26.0 24.0 0.30 1.57 1.12 89 1007.0
20180926010635 52 224 35.0 28.0 0.30 1.57 1.09 89 1007.2
20180926010136 52 236 29.0 25.0 0.33 1.59 1.08 89 1007.4
20180926005635 52 213 32.0 28.0 0.33 1.58 1.06 89 1007.4
20180926005135 52 232 28.0 23.0 0.33 1.59 1.04 89 1007.7
20180926004636 52 225 29.0 24.0 0.35 1.59 1.02 89 1007.9
20180926004135 51 202 28.0 25.0 0.35 1.59 1.00 89 1008.0
20180926003635 51 230 32.0 30.0 0.36 1.59 0.98 89 1008.4
20180926003135 51 245 28.0 24.0 0.37 1.59 0.96 89 1008.5
20180926002635 51 186 26.0 25.0 0.35 1.57 0.93 89 1008.6
20180926002135 51 201 28.0 33.0 0.35 1.56 0.89 89 1008.8
20180926001636 51 214 25.0 25.0 0.35 1.53 0.85 89 1009.0
20180926001135 51 214 26.0 24.0 0.33 1.50 0.82 89 1009.1
20180926000635 51 225 24.0 32.0 0.31 1.48 0.78 89 1009.1
20180926000135 51 202 29.0 33.0 0.30 1.45 0.75 89 1009.3
20180925235635 51 187 24.0 28.0 0.30 1.43 0.72 89 1009.5
20180925235135 51 219 28.0 23.0 0.30 1.42 0.70 89 1009.8
20180925234635 51 206 25.0 22.0 0.28 1.40 0.67 89 1009.9
20180925234135 51 225 25.0 25.0 0.28 1.39 0.64 89 1010.1
20180925233635 51 210 30.0 30.0 0.27 1.36 0.62 89 1010.3
20180925233135 51 246 20.0 23.0 0.26 1.33 0.59 89 1010.4
20180925232636 51 206 28.0 30.0 0.28 1.32 0.57 88 1010.5
20180925232135 51 185 27.0 23.0 0.26 1.30 0.54 88 1010.6
20180925231635 50 198 21.0 23.0 0.24 1.28 0.51 88 1010.6
20180925231135 50 197 27.0 21.0 0.24 1.26 0.49 88 1010.7
20180925230635 50 255 30.0 32.0 0.24 1.25 0.47 88 1010.7
20180925230135 50 188 33.0 30.0 0.24 1.24 0.45 88 1010.7
20180925225635 50 221 24.0 28.0 0.22 1.23 0.43 88 1010.9
20180925225136 50 198 29.0 26.0 0.21 1.22 0.41 88 1011.0
20180925224636 50 228 28.0 22.0 0.20 1.20 0.39 88 1011.1
20180925224135 50 202 29.0 25.0 0.19 1.19 0.37 88 1011.3
20180925223635 50 225 26.0 25.0 0.17 1.18 0.35 88 1011.5
20180925223135 50 225 29.0 28.0 0.17 1.16 0.33 88 1011.9
20180925222635 50 205 29.0 29.0 0.13 1.14 0.30 88 1012.4
20180925222136 50 232 19.0 24.0 0.11 1.13 0.28 88 1012.3
20180925221635 50 219 29.0 23.0 0.11 1.12 0.26 88 1012.3
20180925221136 50 202 28.0 31.0 0.09 1.11 0.24 88 1012.3
20180925220635 50 225 36.0 31.0 0.08 1.09 0.22 88 1012.3
20180925220135 50 221 41.0 33.0 0.07 1.08 0.21 88 1012.3
20180925215635 50 221 41.0 33.0 0.06 1.08 0.20 87 1012.3
20180925215135 50 221 32.0 30.0 0.05 1.07 0.19 87 1012.4
20180925214635 50 199 32.0 28.0 0.04 1.06 0.18 87 1012.7
20180925214135 49 206 36.0 37.0 0.03 1.06 0.17 87 1012.7
20180925213636 49 198 32.0 25.0 0.04 1.06 0.17 87 1012.6
20180925213135 49 177 29.0 30.0 0.03 1.05 0.16 87 1013.0
20180925212635 49 203 39.0 36.0 0.03 1.05 0.16 87 1013.3
20180925212135 49 212 30.0 29.0 0.04 1.05 0.16 87 1013.1
20180925211635 49 208 35.0 39.0 0.03 1.04 0.15 87 1013.6
20180925211135 49 224 40.0 36.0 0.03 1.04 0.15 87 1013.2
20180925210635 49 202 36.0 29.0 0.03 1.03 0.14 87 1013.8
20180925210134 49 218 28.0 25.0 0.03 1.03 0.14 87 1013.9
20180925205635 49 202 37.0 35.0 0.03 1.03 0.14 87 1014.0
20180925205135 49 193 40.0 30.0 0.04 1.03 0.14 87 1014.2
20180925204635 49 205 33.0 26.0 0.04 1.03 0.14 86 1014.4
20180925204135 49 191 37.0 31.0 0.04 1.03 0.14 86 1014.7
20180925203635 49 187 28.0 26.0 0.04 1.02 0.13 86 1014.7
20180925203134 49 202 26.0 25.0 0.04 1.02 0.13 86 1014.9
20180925202635 49 160 35.0 29.0 0.04 1.02 0.13 85 1015.0
20180925202135 49 196 32.0 30.0 0.04 1.01 0.12 85 1014.8
20180925201635 49 166 32.0 29.0 0.04 1.01 0.12 85 1014.8
20180925201135 49 190 26.0 30.0 0.05 1.01 0.12 85 1015.4
20180925200635 49 202 33.0 33.0 0.04 1.00 0.11 85 1016.0
20180925200135 49 202 42.0 32.0 0.05 1.00 0.11 85 1016.1
20180925195634 49 193 30.0 30.0 0.05 1.00 0.11 84 1015.9
20180925195135 49 231 39.0 31.0 0.04 0.99 0.10 83 1016.2
20180925194635 49 186 22.0 30.0 0.04 0.99 0.10 83 1016.2
20180925194135 49 180 33.0 31.0 0.04 0.99 0.10 83 1016.0
20180925193635 49 202 35.0 30.0 0.03 0.98 0.09 82 1016.3
20180925193135 49 221 29.0 25.0 0.04 0.98 0.09 82 1016.0
20180925192649 48 178 30.0 25.0 0.04 0.98 0.09 81 1016.5
20180925192136 49 184 25.0 28.0 0.03 0.97 0.08 80 1016.9
20180925191635 49 202 34.0 32.0 0.03 0.97 0.08 80 1017.0
20180925191135 49 203 41.0 35.0 0.02 0.96 0.07 80 1017.0
20180925190635 50 202 34.0 33.0 0.02 0.96 0.07 80 1017.0
20180925190135 50 193 27.0 32.0 0.01 0.95 0.06 80 1017.0
20180925185635 51 218 27.0 32.0 0.01 0.95 0.06 79 1017.4
20180925185135 51 217 45.0 43.0 0.01 0.95 0.06 78 1017.8
20180925184635 51 202 29.0 24.0 0.01 0.95 0.06 78 1017.7
20180925184135 51 202 28.0 33.0 0.01 0.95 0.06 77 1017.8
20180925183635 51 202 24.0 22.0 0.01 0.95 0.06 77 1017.7
20180925183135 51 244 32.0 31.0 0.00 0.94 0.05 77 1017.7
20180925182639 51 184 29.0 32.0 0.00 0.94 0.05 76 1017.7
20180925182134 52 188 39.0 33.0 0.00 0.94 0.05 76 1017.8
20180925181634 52 234 36.0 33.0 0.00 0.94 0.05 75 1017.8
20180925181135 52 213 32.0 26.0 0.00 0.94 0.05 75 1017.8
20180925180635 52 202 27.0 22.0 0.00 0.94 0.05 74 1018.0
20180925180134 52 214 32.0 24.0 0.00 0.94 0.05 75 1017.9
20180925175634 52 202 32.0 31.0 0.00 0.94 0.05 74 1017.9
20180925175135 52 212 36.0 30.0 0.00 0.94 0.05 74 1018.2
20180925174635 52 209 30.0 32.0 0.00 0.94 0.05 75 1018.5
20180925174135 52 185 38.0 32.0 0.00 0.94 0.05 74 1018.7
20180925173635 52 161 24.0 23.0 0.00 0.94 0.05 74 1018.7
20180925173135 52 202 30.0 37.0 0.00 0.94 0.05 74 1018.8
20180925172634 52 202 34.0 37.0 0.00 0.94 0.05 74 1018.8
20180925172135 52 217 36.0 28.0 0.00 0.94 0.05 74 1018.8
20180925171635 52 210 24.0 31.0 0.00 0.94 0.05 74 1018.9
20180925170639 52 200 32.0 29.0 0.00 0.94 0.05 75 1019.1
20180925170135 52 188 26.0 24.0 0.00 0.94 0.05 76 1019.3
20180925165635 52 211 29.0 28.0 0.00 0.94 0.05 76 1019.6
20180925165135 52 192 33.0 29.0 0.00 0.94 0.05 76 1019.6
20180925164635 52 225 33.0 29.0 0.00 0.94 0.05 76 1019.5
20180925164134 52 239 22.0 18.0 0.00 0.94 0.05 77 1019.7
20180925163635 52 221 24.0 25.0 0.00 0.94 0.05 77 1019.9
20180925163135 52 202 35.0 29.0 0.00 0.94 0.05 77 1019.8
20180925162635 52 202 24.0 28.0 0.00 0.94 0.05 78 1019.7
20180925162135 52 225 34.0 30.0 0.00 0.94 0.05 78 1019.5
20180925161635 52 187 23.0 28.0 0.00 0.94 0.05 78 1019.5
20180925161135 52 206 28.0 28.0 0.00 0.94 0.05 79 1019.5
20180925160635 52 178 21.0 24.0 0.00 0.94 0.05 79 1019.7
20180925160135 52 193 30.0 24.0 0.00 0.94 0.05 79 1020.0
20180925155634 52 200 21.0 22.0 0.00 0.94 0.05 79 1020.1
20180925155135 53 224 26.0 24.0 0.00 0.94 0.05 80 1020.2
20180925154634 53 195 25.0 25.0 0.00 0.94 0.05 80 1020.1
20180925154134 53 225 22.0 22.0 0.00 0.94 0.05 80 1020.2
20180925153634 53 217 28.0 22.0 0.00 0.94 0.05 80 1020.2
20180925153150 53 225 24.0 24.0 0.00 0.94 0.05 79 1020.3
20180925152638 53 201 20.0 25.0 0.00 0.94 0.05 79 1020.4
20180925152135 53 164 18.0 17.0 0.00 0.94 0.05 79 1020.5
20180925151634 53 233 25.0 24.0 0.00 0.94 0.05 79 1020.5
20180925151135 53 235 34.0 31.0 0.00 0.94 0.05 79 1020.7
20180925150634 53 213 27.0 22.0 0.00 0.94 0.05 79 1020.6
20180925150135 53 211 20.0 23.0 0.00 0.94 0.05 79 1020.6
20180925145634 53 225 24.0 22.0 0.00 0.94 0.05 79 1020.6
20180925145134 53 180 29.0 23.0 0.00 0.94 0.05 79 1020.9
20180925144634 53 195 32.0 26.0 0.00 0.94 0.05 79 1020.9
20180925144135 53 191 24.0 24.0 0.00 0.94 0.05 79 1021.1
20180925143635 53 202 21.0 25.0 0.00 0.94 0.05 79 1021.3
20180925143134 53 225 30.0 26.0 0.00 0.94 0.05 79 1021.4
20180925142635 54 180 21.0 22.0 0.00 0.94 0.05 79 1021.6
20180925142135 53 189 17.0 18.0 0.00 0.94 0.05 79 1021.8
20180925141635 53 244 22.0 20.0 0.00 0.94 0.05 79 1021.9
20180925141134 53 214 25.0 23.0 0.00 0.94 0.05 78 1022.1
20180925140634 53 213 20.0 23.0 0.00 0.94 0.05 79 1022.3
20180925140134 53 212 30.0 24.0 0.00 0.94 0.05 79 1022.3
20180925135635 53 212 20.0 21.0 0.00 0.94 0.05 80 1022.4
20180925135135 53 248 25.0 21.0 0.00 0.94 0.05 80 1022.4
20180925134635 53 220 21.0 20.0 0.00 0.94 0.05 81 1022.5
20180925134134 53 202 25.0 22.0 0.00 0.94 0.05 81 1022.6
20180925133635 53 225 21.0 20.0 0.00 0.94 0.05 82 1022.7
20180925133134 53 202 25.0 20.0 0.00 0.94 0.05 82 1022.7
20180925132635 53 225 17.0 22.0 0.00 0.94 0.05 82 1022.8
20180925132135 53 202 25.0 23.0 0.00 0.94 0.05 82 1022.7
20180925131635 53 195 23.0 23.0 0.00 0.94 0.05 82 1022.8
20180925131134 53 239 29.0 26.0 0.00 0.94 0.05 82 1022.9
20180925130635 53 225 25.0 24.0 0.00 0.94 0.05 83 1023.0
20180925130135 53 237 25.0 24.0 0.00 0.94 0.05 83 1022.9
20180925125635 53 219 27.0 26.0 0.00 0.94 0.05 83 1023.1
20180925125135 53 210 20.0 21.0 0.00 0.94 0.05 83 1023.2
20180925124634 53 225 25.0 24.0 0.00 0.94 0.05 83 1023.2
20180925124135 53 241 17.0 16.0 0.00 0.94 0.05 84 1023.4
20180925123634 53 219 17.0 20.0 0.00 0.94 0.05 84 1023.4
20180925123135 53 245 21.0 20.0 0.00 0.96 0.05 84 1023.5
20180925122634 53 204 20.0 16.0 0.00 0.96 0.05 84 1023.6
20180925122134 53 231 20.0 18.0 0.00 0.98 0.05 84 1023.6
20180925121635 53 235 18.0 18.0 0.00 1.00 0.05 84 1023.8
20180925121134 53 248 22.0 29.0 0.00 1.01 0.05 84 1023.8
20180925120634 53 248 26.0 23.0 0.01 1.01 0.05 84 1023.8
20180925120135 53 214 20.0 22.0 0.01 1.01 0.05 85 1023.7
20180925115634 53 223 21.0 18.0 0.01 1.01 0.05 85 1023.7
20180925115135 52 238 30.0 24.0 0.01 1.01 0.05 86 1023.8
20180925114634 52 243 25.0 22.0 0.01 1.02 0.05 86 1023.8
20180925114143 52 263 28.0 21.0 0.01 1.02 0.05 86 1023.7
20180925113635 52 230 25.0 21.0 0.01 1.02 0.05 87 1023.7
20180925113135 52 202 14.0 20.0 0.02 1.02 0.05 87 1023.8
20180925112634 52 241 18.0 17.0 0.02 1.02 0.05 86 1023.9
20180925112134 52 241 16.0 15.0 0.02 1.02 0.05 86 1023.9
20180925111634 52 192 26.0 21.0 0.02 1.02 0.05 86 1023.9
20180925111134 52 233 20.0 20.0 0.02 1.02 0.05 86 1023.9
20180925110635 52 235 23.0 18.0 0.01 1.00 0.04 86 1023.9
20180925110135 52 213 25.0 22.0 0.01 1.00 0.04 86 1024.0
20180925105634 52 212 16.0 18.0 0.01 1.00 0.04 87 1024.0
20180925105134 51 225 16.0 18.0 0.01 1.00 0.04 87 1024.1
20180925104635 51 225 17.0 15.0 0.01 1.00 0.04 87 1024.1
20180925104134 51 225 17.0 17.0 0.02 1.00 0.04 87 1024.2
20180925103635 51 225 25.0 22.0 0.02 1.00 0.04 87 1024.3
20180925103134 51 230 21.0 17.0 0.01 1.00 0.03 87 1024.3
20180925102634 51 221 14.0 17.0 0.02 1.00 0.03 87 1024.3
20180925102135 51 225 17.0 17.0 0.03 1.00 0.03 87 1024.3
20180925101635 51 202 18.0 15.0 0.03 1.00 0.03 87 1024.4
20180925101135 51 202 11.0 13.0 0.03 1.00 0.03 86 1024.5
20180925100634 51 197 12.0 13.0 0.03 1.00 0.03 86 1024.5
20180925100142 51 184 18.0 16.0 0.03 1.00 0.03 86 1024.7
20180925095634 51 206 16.0 14.0 0.03 1.00 0.03 86 1024.7
20180925095134 51 206 15.0 18.0 0.03 1.00 0.03 86 1024.7
20180925094635 51 202 18.0 18.0 0.03 1.00 0.03 86 1024.8
20180925094134 51 206 23.0 20.0 0.02 0.98 0.02 86 1024.6
20180925093634 51 202 21.0 18.0 0.02 0.98 0.02 85 1024.6
20180925093134 51 245 10.0 21.0 0.02 0.98 0.02 85 1024.9
20180925092635 51 246 21.0 21.0 0.01 0.98 0.01 84 1024.9
20180925092135 52 209 18.0 14.0 0.00 0.96 0.00 84 1024.9
20180925091634 52 218 15.0 14.0 0.00 0.96 0.00 84 1024.9
20180925091134 52 244 17.0 16.0 0.00 0.96 0.00 85 1025.0
20180925090634 52 248 13.0 16.0 0.00 0.96 0.00 86 1025.0